sensor_id;sensor_type;location;lat;lon;timestamp;P1;durP1;ratioP1;P2;durP2;ratioP2
35366;SDS011;21465;52.278;20.962;2023-09-07T00:02:09;3.72;;;3.42;;
35366;SDS011;21465;52.278;20.962;2023-09-07T00:05:26;3.42;;;3.17;;
35366;SDS011;21465;52.278;20.962;2023-09-07T00:08:33;4.13;;;3.67;;
35366;SDS011;21465;52.278;20.962;2023-09-07T00:11:27;4.38;;;3.75;;
35366;SDS011;21465;52.278;20.962;2023-09-07T00:14:38;3.75;;;3.42;;
35366;SDS011;21465;52.278;20.962;2023-09-07T00:17:43;3.63;;;3.33;;
35366;SDS011;21465;52.278;20.962;2023-09-07T00:28:11;3.92;;;3.58;;
35366;SDS011;21465;52.278;20.962;2023-09-07T00:30:43;4.45;;;3.97;;
35366;SDS011;21465;52.278;20.962;2023-09-07T00:33:10;4.30;;;4.00;;
35366;SDS011;21465;52.278;20.962;2023-09-07T00:36:01;4.63;;;3.58;;
35366;SDS011;21465;52.278;20.962;2023-09-07T00:42:19;5.28;;;3.92;;
35366;SDS011;21465;52.278;20.962;2023-09-07T00:44:51;4.88;;;3.88;;
35366;SDS011;21465;52.278;20.962;2023-09-07T01:08:38;6.00;;;4.00;;
35366;SDS011;21465;52.278;20.962;2023-09-07T01:11:16;4.63;;;4.15;;
35366;SDS011;21465;52.278;20.962;2023-09-07T01:13:43;4.22;;;3.63;;
35366;SDS011;21465;52.278;20.962;2023-09-07T01:16:11;4.53;;;4.13;;
35366;SDS011;21465;52.278;20.962;2023-09-07T01:19:54;5.85;;;4.00;;
35366;SDS011;21465;52.278;20.962;2023-09-07T01:22:50;4.55;;;3.92;;
35366;SDS011;21465;52.278;20.962;2023-09-07T01:25:16;4.80;;;3.92;;
35366;SDS011;21465;52.278;20.962;2023-09-07T01:27:45;5.45;;;3.63;;
35366;SDS011;21465;52.278;20.962;2023-09-07T02:05:13;5.65;;;3.95;;
35366;SDS011;21465;52.278;20.962;2023-09-07T02:07:44;4.45;;;3.60;;
35366;SDS011;21465;52.278;20.962;2023-09-07T02:10:19;4.55;;;4.15;;
35366;SDS011;21465;52.278;20.962;2023-09-07T02:12:45;3.78;;;3.47;;
35366;SDS011;21465;52.278;20.962;2023-09-07T02:27:44;4.10;;;3.75;;
35366;SDS011;21465;52.278;20.962;2023-09-07T02:30:12;3.93;;;3.63;;
35366;SDS011;21465;52.278;20.962;2023-09-07T02:35:13;4.47;;;3.83;;
35366;SDS011;21465;52.278;20.962;2023-09-07T02:37:46;4.28;;;3.85;;
35366;SDS011;21465;52.278;20.962;2023-09-07T02:40:12;4.55;;;4.03;;
35366;SDS011;21465;52.278;20.962;2023-09-07T03:16:22;4.95;;;4.30;;
35366;SDS011;21465;52.278;20.962;2023-09-07T03:18:48;4.47;;;4.18;;
35366;SDS011;21465;52.278;20.962;2023-09-07T03:21:25;4.35;;;4.00;;
35366;SDS011;21465;52.278;20.962;2023-09-07T03:26:55;5.65;;;4.70;;
35366;SDS011;21465;52.278;20.962;2023-09-07T03:29:29;5.53;;;4.65;;
35366;SDS011;21465;52.278;20.962;2023-09-07T03:35:38;5.28;;;4.68;;
35366;SDS011;21465;52.278;20.962;2023-09-07T03:38:19;5.60;;;5.18;;
35366;SDS011;21465;52.278;20.962;2023-09-07T03:40:45;5.22;;;4.82;;
35366;SDS011;21465;52.278;20.962;2023-09-07T03:43:11;5.28;;;4.78;;
35366;SDS011;21465;52.278;20.962;2023-09-07T03:46:11;5.28;;;4.47;;
35366;SDS011;21465;52.278;20.962;2023-09-07T03:48:31;5.63;;;5.13;;
35366;SDS011;21465;52.278;20.962;2023-09-07T03:50:57;5.70;;;5.20;;
35366;SDS011;21465;52.278;20.962;2023-09-07T03:53:24;5.32;;;4.93;;
35366;SDS011;21465;52.278;20.962;2023-09-07T03:55:52;6.60;;;6.10;;
35366;SDS011;21465;52.278;20.962;2023-09-07T03:58:30;6.05;;;5.55;;
35366;SDS011;21465;52.278;20.962;2023-09-07T04:01:18;6.97;;;6.47;;
35366;SDS011;21465;52.278;20.962;2023-09-07T04:06:23;6.65;;;6.05;;
35366;SDS011;21465;52.278;20.962;2023-09-07T04:08:50;7.40;;;6.70;;
35366;SDS011;21465;52.278;20.962;2023-09-07T04:11:16;6.75;;;6.22;;
35366;SDS011;21465;52.278;20.962;2023-09-07T04:13:59;6.97;;;6.47;;
35366;SDS011;21465;52.278;20.962;2023-09-07T04:16:34;6.70;;;6.10;;
35366;SDS011;21465;52.278;20.962;2023-09-07T04:19:10;7.00;;;6.30;;
35366;SDS011;21465;52.278;20.962;2023-09-07T04:22:04;7.13;;;6.60;;
35366;SDS011;21465;52.278;20.962;2023-09-07T04:24:47;6.63;;;6.13;;
35366;SDS011;21465;52.278;20.962;2023-09-07T04:27:38;6.40;;;6.00;;
35366;SDS011;21465;52.278;20.962;2023-09-07T04:30:41;6.57;;;5.97;;
35366;SDS011;21465;52.278;20.962;2023-09-07T04:33:07;6.40;;;5.85;;
35366;SDS011;21465;52.278;20.962;2023-09-07T04:35:33;6.47;;;5.88;;
35366;SDS011;21465;52.278;20.962;2023-09-07T04:38:01;6.15;;;5.55;;
35366;SDS011;21465;52.278;20.962;2023-09-07T04:40:27;6.07;;;5.68;;
35366;SDS011;21465;52.278;20.962;2023-09-07T04:43:13;5.95;;;5.38;;
35366;SDS011;21465;52.278;20.962;2023-09-07T04:45:45;6.20;;;5.50;;
35366;SDS011;21465;52.278;20.962;2023-09-07T04:48:12;9.18;;;5.50;;
35366;SDS011;21465;52.278;20.962;2023-09-07T04:50:38;6.47;;;5.90;;
35366;SDS011;21465;52.278;20.962;2023-09-07T04:53:04;5.80;;;5.20;;
35366;SDS011;21465;52.278;20.962;2023-09-07T04:55:29;9.98;;;6.00;;
35366;SDS011;21465;52.278;20.962;2023-09-07T04:57:55;9.00;;;5.20;;
35366;SDS011;21465;52.278;20.962;2023-09-07T05:00:23;6.13;;;5.40;;
35366;SDS011;21465;52.278;20.962;2023-09-07T05:02:49;8.88;;;5.10;;
35366;SDS011;21465;52.278;20.962;2023-09-07T05:05:18;7.20;;;5.18;;
35366;SDS011;21465;52.278;20.962;2023-09-07T05:07:45;6.20;;;5.60;;
35366;SDS011;21465;52.278;20.962;2023-09-07T05:10:11;5.20;;;4.80;;
35366;SDS011;21465;52.278;20.962;2023-09-07T05:12:44;5.40;;;4.90;;
35366;SDS011;21465;52.278;20.962;2023-09-07T05:15:10;6.13;;;5.55;;
35366;SDS011;21465;52.278;20.962;2023-09-07T05:17:36;6.05;;;5.43;;
35366;SDS011;21465;52.278;20.962;2023-09-07T05:20:02;6.03;;;5.25;;
35366;SDS011;21465;52.278;20.962;2023-09-07T05:22:34;7.43;;;6.20;;
35366;SDS011;21465;52.278;20.962;2023-09-07T05:25:30;8.07;;;5.85;;
35366;SDS011;21465;52.278;20.962;2023-09-07T05:27:56;5.78;;;5.20;;
35366;SDS011;21465;52.278;20.962;2023-09-07T05:30:22;8.60;;;5.25;;
35366;SDS011;21465;52.278;20.962;2023-09-07T05:32:48;8.00;;;6.80;;
35366;SDS011;21465;52.278;20.962;2023-09-07T05:35:14;6.15;;;5.60;;
35366;SDS011;21465;52.278;20.962;2023-09-07T05:37:42;6.97;;;5.70;;
35366;SDS011;21465;52.278;20.962;2023-09-07T05:40:08;9.90;;;5.95;;
35366;SDS011;21465;52.278;20.962;2023-09-07T05:42:34;7.47;;;5.68;;
35366;SDS011;21465;52.278;20.962;2023-09-07T05:45:00;6.95;;;6.25;;
35366;SDS011;21465;52.278;20.962;2023-09-07T05:47:26;6.57;;;5.85;;
35366;SDS011;21465;52.278;20.962;2023-09-07T05:49:52;6.57;;;5.97;;
35366;SDS011;21465;52.278;20.962;2023-09-07T05:52:18;5.72;;;5.20;;
35366;SDS011;21465;52.278;20.962;2023-09-07T05:54:43;9.50;;;6.32;;
35366;SDS011;21465;52.278;20.962;2023-09-07T05:57:10;6.88;;;6.28;;
35366;SDS011;21465;52.278;20.962;2023-09-07T05:59:36;6.95;;;5.60;;
35366;SDS011;21465;52.278;20.962;2023-09-07T06:02:02;7.30;;;6.15;;
35366;SDS011;21465;52.278;20.962;2023-09-07T06:04:29;8.23;;;6.15;;
35366;SDS011;21465;52.278;20.962;2023-09-07T06:06:55;5.95;;;5.38;;
35366;SDS011;21465;52.278;20.962;2023-09-07T06:09:21;6.40;;;5.72;;
35366;SDS011;21465;52.278;20.962;2023-09-07T06:11:47;7.20;;;6.13;;
35366;SDS011;21465;52.278;20.962;2023-09-07T06:14:12;6.30;;;5.70;;
35366;SDS011;21465;52.278;20.962;2023-09-07T06:16:38;6.75;;;5.97;;
35366;SDS011;21465;52.278;20.962;2023-09-07T06:19:05;6.80;;;6.10;;
35366;SDS011;21465;52.278;20.962;2023-09-07T06:21:32;6.05;;;5.25;;
35366;SDS011;21465;52.278;20.962;2023-09-07T06:23:57;6.00;;;5.10;;
35366;SDS011;21465;52.278;20.962;2023-09-07T06:26:23;7.28;;;6.10;;
35366;SDS011;21465;52.278;20.962;2023-09-07T06:28:49;6.80;;;6.03;;
35366;SDS011;21465;52.278;20.962;2023-09-07T06:31:16;7.72;;;5.65;;
35366;SDS011;21465;52.278;20.962;2023-09-07T06:33:41;6.90;;;5.90;;
35366;SDS011;21465;52.278;20.962;2023-09-07T06:36:07;6.75;;;6.15;;
35366;SDS011;21465;52.278;20.962;2023-09-07T06:38:33;6.50;;;5.60;;
35366;SDS011;21465;52.278;20.962;2023-09-07T06:40:59;8.38;;;5.88;;
35366;SDS011;21465;52.278;20.962;2023-09-07T06:43:24;6.45;;;5.90;;
35366;SDS011;21465;52.278;20.962;2023-09-07T06:45:50;6.85;;;6.28;;
35366;SDS011;21465;52.278;20.962;2023-09-07T06:48:16;6.53;;;5.80;;
35366;SDS011;21465;52.278;20.962;2023-09-07T06:50:42;8.05;;;5.82;;
35366;SDS011;21465;52.278;20.962;2023-09-07T06:53:07;5.03;;;4.63;;
35366;SDS011;21465;52.278;20.962;2023-09-07T06:55:33;6.38;;;5.80;;
35366;SDS011;21465;52.278;20.962;2023-09-07T06:57:59;6.20;;;5.68;;
35366;SDS011;21465;52.278;20.962;2023-09-07T07:00:29;6.10;;;5.60;;
35366;SDS011;21465;52.278;20.962;2023-09-07T07:05:22;6.00;;;5.28;;
35366;SDS011;21465;52.278;20.962;2023-09-07T07:07:48;5.45;;;4.95;;
35366;SDS011;21465;52.278;20.962;2023-09-07T07:10:14;10.10;;;5.80;;
35366;SDS011;21465;52.278;20.962;2023-09-07T07:12:40;8.30;;;5.38;;
35366;SDS011;21465;52.278;20.962;2023-09-07T07:15:06;7.13;;;6.22;;
35366;SDS011;21465;52.278;20.962;2023-09-07T07:17:32;7.80;;;5.82;;
35366;SDS011;21465;52.278;20.962;2023-09-07T07:19:58;6.00;;;5.45;;
35366;SDS011;21465;52.278;20.962;2023-09-07T07:22:24;7.55;;;5.38;;
35366;SDS011;21465;52.278;20.962;2023-09-07T07:24:50;8.02;;;5.80;;
35366;SDS011;21465;52.278;20.962;2023-09-07T07:27:15;8.93;;;6.45;;
35366;SDS011;21465;52.278;20.962;2023-09-07T07:29:41;6.82;;;5.78;;
35366;SDS011;21465;52.278;20.962;2023-09-07T07:32:07;8.30;;;5.75;;
35366;SDS011;21465;52.278;20.962;2023-09-07T07:34:35;6.40;;;5.60;;
35366;SDS011;21465;52.278;20.962;2023-09-07T07:37:01;7.32;;;5.28;;
35366;SDS011;21465;52.278;20.962;2023-09-07T07:39:30;10.82;;;4.97;;
35366;SDS011;21465;52.278;20.962;2023-09-07T07:41:55;7.03;;;5.18;;
35366;SDS011;21465;52.278;20.962;2023-09-07T07:44:21;10.15;;;5.60;;
35366;SDS011;21465;52.278;20.962;2023-09-07T07:46:47;8.43;;;5.18;;
35366;SDS011;21465;52.278;20.962;2023-09-07T07:49:13;10.02;;;5.13;;
35366;SDS011;21465;52.278;20.962;2023-09-07T07:51:39;5.97;;;4.80;;
35366;SDS011;21465;52.278;20.962;2023-09-07T07:54:09;6.88;;;4.68;;
35366;SDS011;21465;52.278;20.962;2023-09-07T07:56:35;5.28;;;4.57;;
35366;SDS011;21465;52.278;20.962;2023-09-07T07:59:00;4.85;;;4.43;;
35366;SDS011;21465;52.278;20.962;2023-09-07T08:01:27;9.95;;;4.68;;
35366;SDS011;21465;52.278;20.962;2023-09-07T08:03:55;7.57;;;4.72;;
35366;SDS011;21465;52.278;20.962;2023-09-07T08:06:20;6.63;;;4.28;;
35366;SDS011;21465;52.278;20.962;2023-09-07T08:08:46;8.65;;;5.07;;
35366;SDS011;21465;52.278;20.962;2023-09-07T08:11:12;7.40;;;4.68;;
35366;SDS011;21465;52.278;20.962;2023-09-07T08:13:37;7.05;;;4.68;;
35366;SDS011;21465;52.278;20.962;2023-09-07T08:16:04;7.38;;;4.60;;
35366;SDS011;21465;52.278;20.962;2023-09-07T08:18:31;5.15;;;4.45;;
35366;SDS011;21465;52.278;20.962;2023-09-07T08:20:58;7.65;;;4.40;;
35366;SDS011;21465;52.278;20.962;2023-09-07T08:23:26;7.43;;;4.80;;
35366;SDS011;21465;52.278;20.962;2023-09-07T08:25:52;7.25;;;4.60;;
35366;SDS011;21465;52.278;20.962;2023-09-07T08:28:18;6.32;;;4.75;;
35366;SDS011;21465;52.278;20.962;2023-09-07T08:30:48;5.07;;;4.13;;
35366;SDS011;21465;52.278;20.962;2023-09-07T08:33:15;5.70;;;4.30;;
35366;SDS011;21465;52.278;20.962;2023-09-07T08:35:41;6.32;;;4.10;;
35366;SDS011;21465;52.278;20.962;2023-09-07T08:38:12;6.22;;;4.25;;
35366;SDS011;21465;52.278;20.962;2023-09-07T08:40:38;7.40;;;4.40;;
35366;SDS011;21465;52.278;20.962;2023-09-07T08:43:05;6.55;;;3.95;;
35366;SDS011;21465;52.278;20.962;2023-09-07T08:45:37;8.15;;;3.65;;
35366;SDS011;21465;52.278;20.962;2023-09-07T08:48:06;4.50;;;3.70;;
35366;SDS011;21465;52.278;20.962;2023-09-07T08:50:32;7.32;;;3.40;;
35366;SDS011;21465;52.278;20.962;2023-09-07T08:52:58;6.03;;;3.70;;
35366;SDS011;21465;52.278;20.962;2023-09-07T08:55:24;4.93;;;3.50;;
35366;SDS011;21465;52.278;20.962;2023-09-07T08:57:51;5.03;;;3.35;;
35366;SDS011;21465;52.278;20.962;2023-09-07T09:00:16;4.53;;;3.55;;
35366;SDS011;21465;52.278;20.962;2023-09-07T09:02:42;4.63;;;3.65;;
35366;SDS011;21465;52.278;20.962;2023-09-07T09:05:09;4.03;;;3.40;;
35366;SDS011;21465;52.278;20.962;2023-09-07T09:07:37;4.07;;;2.80;;
35366;SDS011;21465;52.278;20.962;2023-09-07T09:10:06;4.40;;;3.33;;
35366;SDS011;21465;52.278;20.962;2023-09-07T09:12:34;4.90;;;3.20;;
35366;SDS011;21465;52.278;20.962;2023-09-07T09:15:00;4.45;;;3.42;;
35366;SDS011;21465;52.278;20.962;2023-09-07T09:17:35;3.55;;;2.72;;
35366;SDS011;21465;52.278;20.962;2023-09-07T09:20:00;4.47;;;2.30;;
35366;SDS011;21465;52.278;20.962;2023-09-07T09:22:26;5.55;;;2.47;;
35366;SDS011;21465;52.278;20.962;2023-09-07T09:24:52;4.78;;;2.88;;
35366;SDS011;21465;52.278;20.962;2023-09-07T09:27:18;5.00;;;2.58;;
35366;SDS011;21465;52.278;20.962;2023-09-07T09:29:43;3.45;;;2.67;;
35366;SDS011;21465;52.278;20.962;2023-09-07T09:32:13;6.13;;;2.92;;
35366;SDS011;21465;52.278;20.962;2023-09-07T09:34:43;4.53;;;2.53;;
35366;SDS011;21465;52.278;20.962;2023-09-07T09:37:13;4.45;;;3.03;;
35366;SDS011;21465;52.278;20.962;2023-09-07T09:39:40;4.82;;;2.70;;
35366;SDS011;21465;52.278;20.962;2023-09-07T09:42:06;2.63;;;2.42;;
35366;SDS011;21465;52.278;20.962;2023-09-07T09:44:32;2.72;;;2.38;;
35366;SDS011;21465;52.278;20.962;2023-09-07T09:47:00;3.65;;;2.55;;
35366;SDS011;21465;52.278;20.962;2023-09-07T09:49:25;2.70;;;2.40;;
35366;SDS011;21465;52.278;20.962;2023-09-07T09:51:52;2.20;;;1.95;;
35366;SDS011;21465;52.278;20.962;2023-09-07T09:54:17;2.15;;;1.95;;
35366;SDS011;21465;52.278;20.962;2023-09-07T09:56:44;3.55;;;2.08;;
35366;SDS011;21465;52.278;20.962;2023-09-07T09:59:10;2.28;;;2.10;;
35366;SDS011;21465;52.278;20.962;2023-09-07T10:01:44;3.55;;;2.03;;
35366;SDS011;21465;52.278;20.962;2023-09-07T10:04:11;5.03;;;2.00;;
35366;SDS011;21465;52.278;20.962;2023-09-07T10:06:38;3.33;;;2.05;;
35366;SDS011;21465;52.278;20.962;2023-09-07T10:09:07;7.30;;;2.50;;
35366;SDS011;21465;52.278;20.962;2023-09-07T10:11:37;3.72;;;1.98;;
35366;SDS011;21465;52.278;20.962;2023-09-07T10:14:04;4.40;;;2.70;;
35366;SDS011;21465;52.278;20.962;2023-09-07T10:16:41;5.25;;;2.25;;
35366;SDS011;21465;52.278;20.962;2023-09-07T10:19:15;2.55;;;1.88;;
35366;SDS011;21465;52.278;20.962;2023-09-07T10:21:43;2.22;;;1.92;;
35366;SDS011;21465;52.278;20.962;2023-09-07T10:24:09;1.88;;;1.77;;
35366;SDS011;21465;52.278;20.962;2023-09-07T10:26:36;2.85;;;1.90;;
35366;SDS011;21465;52.278;20.962;2023-09-07T10:29:01;2.97;;;2.10;;
35366;SDS011;21465;52.278;20.962;2023-09-07T10:31:29;2.28;;;1.80;;
35366;SDS011;21465;52.278;20.962;2023-09-07T10:34:08;3.25;;;1.45;;
35366;SDS011;21465;52.278;20.962;2023-09-07T10:36:36;1.92;;;1.70;;
35366;SDS011;21465;52.278;20.962;2023-09-07T10:39:02;3.50;;;1.90;;
35366;SDS011;21465;52.278;20.962;2023-09-07T10:41:39;1.48;;;1.38;;
35366;SDS011;21465;52.278;20.962;2023-09-07T10:44:08;3.20;;;1.42;;
35366;SDS011;21465;52.278;20.962;2023-09-07T10:46:39;1.52;;;1.42;;
35366;SDS011;21465;52.278;20.962;2023-09-07T10:49:06;2.38;;;1.70;;
35366;SDS011;21465;52.278;20.962;2023-09-07T10:51:39;2.45;;;1.55;;
35366;SDS011;21465;52.278;20.962;2023-09-07T10:54:16;1.52;;;1.42;;
35366;SDS011;21465;52.278;20.962;2023-09-07T10:56:44;4.47;;;1.40;;
35366;SDS011;21465;52.278;20.962;2023-09-07T11:01:39;2.90;;;1.70;;
35366;SDS011;21465;52.278;20.962;2023-09-07T11:04:05;2.42;;;1.63;;
35366;SDS011;21465;52.278;20.962;2023-09-07T11:06:33;2.53;;;1.70;;
35366;SDS011;21465;52.278;20.962;2023-09-07T11:09:00;2.63;;;2.05;;
35366;SDS011;21465;52.278;20.962;2023-09-07T11:11:26;2.15;;;1.50;;
35366;SDS011;21465;52.278;20.962;2023-09-07T11:13:52;1.60;;;1.50;;
35366;SDS011;21465;52.278;20.962;2023-09-07T11:16:24;1.65;;;1.55;;
35366;SDS011;21465;52.278;20.962;2023-09-07T11:18:50;1.60;;;1.30;;
35366;SDS011;21465;52.278;20.962;2023-09-07T11:21:20;1.25;;;1.15;;
35366;SDS011;21465;52.278;20.962;2023-09-07T11:23:46;1.95;;;1.50;;
35366;SDS011;21465;52.278;20.962;2023-09-07T11:26:12;2.95;;;1.33;;
35366;SDS011;21465;52.278;20.962;2023-09-07T11:28:38;1.63;;;1.40;;
35366;SDS011;21465;52.278;20.962;2023-09-07T11:31:04;1.50;;;1.40;;
35366;SDS011;21465;52.278;20.962;2023-09-07T11:33:32;2.38;;;1.25;;
35366;SDS011;21465;52.278;20.962;2023-09-07T11:35:59;1.33;;;1.25;;
35366;SDS011;21465;52.278;20.962;2023-09-07T11:38:28;2.13;;;1.27;;
35366;SDS011;21465;52.278;20.962;2023-09-07T11:40:54;1.77;;;1.50;;
35366;SDS011;21465;52.278;20.962;2023-09-07T11:43:20;1.55;;;1.45;;
35366;SDS011;21465;52.278;20.962;2023-09-07T11:45:46;2.67;;;1.58;;
35366;SDS011;21465;52.278;20.962;2023-09-07T11:48:15;1.27;;;1.17;;
35366;SDS011;21465;52.278;20.962;2023-09-07T11:50:40;1.83;;;1.42;;
35366;SDS011;21465;52.278;20.962;2023-09-07T11:53:06;1.30;;;1.20;;
35366;SDS011;21465;52.278;20.962;2023-09-07T11:55:33;2.60;;;1.13;;
35366;SDS011;21465;52.278;20.962;2023-09-07T11:57:59;2.63;;;1.20;;
35366;SDS011;21465;52.278;20.962;2023-09-07T12:00:26;1.30;;;1.15;;
35366;SDS011;21465;52.278;20.962;2023-09-07T12:02:51;2.53;;;1.33;;
35366;SDS011;21465;52.278;20.962;2023-09-07T12:05:17;2.35;;;1.67;;
35366;SDS011;21465;52.278;20.962;2023-09-07T12:07:44;1.77;;;1.30;;
35366;SDS011;21465;52.278;20.962;2023-09-07T12:10:11;1.55;;;1.40;;
35366;SDS011;21465;52.278;20.962;2023-09-07T12:12:39;2.63;;;1.38;;
35366;SDS011;21465;52.278;20.962;2023-09-07T12:15:06;1.88;;;1.40;;
35366;SDS011;21465;52.278;20.962;2023-09-07T12:17:32;1.40;;;1.30;;
35366;SDS011;21465;52.278;20.962;2023-09-07T12:19:59;1.50;;;1.00;;
35366;SDS011;21465;52.278;20.962;2023-09-07T12:22:25;1.80;;;1.35;;
35366;SDS011;21465;52.278;20.962;2023-09-07T12:24:52;3.15;;;1.27;;
35366;SDS011;21465;52.278;20.962;2023-09-07T12:27:18;1.13;;;1.08;;
35366;SDS011;21465;52.278;20.962;2023-09-07T12:29:44;1.67;;;1.20;;
35366;SDS011;21465;52.278;20.962;2023-09-07T12:32:10;1.15;;;1.00;;
35366;SDS011;21465;52.278;20.962;2023-09-07T12:34:36;1.50;;;1.02;;
35366;SDS011;21465;52.278;20.962;2023-09-07T12:37:05;1.15;;;1.08;;
35366;SDS011;21465;52.278;20.962;2023-09-07T12:39:32;0.90;;;0.90;;
35366;SDS011;21465;52.278;20.962;2023-09-07T12:41:58;1.27;;;1.10;;
35366;SDS011;21465;52.278;20.962;2023-09-07T12:44:24;1.10;;;1.00;;
35366;SDS011;21465;52.278;20.962;2023-09-07T12:46:49;1.95;;;1.10;;
35366;SDS011;21465;52.278;20.962;2023-09-07T12:49:15;1.33;;;1.23;;
35366;SDS011;21465;52.278;20.962;2023-09-07T12:51:41;2.05;;;1.15;;
35366;SDS011;21465;52.278;20.962;2023-09-07T12:54:07;3.15;;;1.00;;
35366;SDS011;21465;52.278;20.962;2023-09-07T12:56:33;1.13;;;1.00;;
35366;SDS011;21465;52.278;20.962;2023-09-07T12:59:00;2.08;;;1.20;;
35366;SDS011;21465;52.278;20.962;2023-09-07T13:01:26;1.15;;;1.00;;
35366;SDS011;21465;52.278;20.962;2023-09-07T13:03:52;1.45;;;1.23;;
35366;SDS011;21465;52.278;20.962;2023-09-07T13:06:20;1.70;;;1.10;;
35366;SDS011;21465;52.278;20.962;2023-09-07T13:08:49;1.00;;;0.90;;
35366;SDS011;21465;52.278;20.962;2023-09-07T13:11:15;3.08;;;1.27;;
35366;SDS011;21465;52.278;20.962;2023-09-07T13:13:41;1.90;;;1.10;;
35366;SDS011;21465;52.278;20.962;2023-09-07T13:16:07;1.52;;;1.20;;
35366;SDS011;21465;52.278;20.962;2023-09-07T13:18:33;1.58;;;0.88;;
35366;SDS011;21465;52.278;20.962;2023-09-07T13:20:58;0.88;;;0.70;;
35366;SDS011;21465;52.278;20.962;2023-09-07T13:23:25;1.95;;;0.95;;
35366;SDS011;21465;52.278;20.962;2023-09-07T13:25:51;2.25;;;0.90;;
35366;SDS011;21465;52.278;20.962;2023-09-07T13:28:17;1.77;;;1.17;;
35366;SDS011;21465;52.278;20.962;2023-09-07T13:30:43;2.17;;;1.20;;
35366;SDS011;21465;52.278;20.962;2023-09-07T13:33:09;0.80;;;0.80;;
35366;SDS011;21465;52.278;20.962;2023-09-07T13:35:34;0.85;;;0.85;;
35366;SDS011;21465;52.278;20.962;2023-09-07T13:38:01;1.00;;;0.90;;
35366;SDS011;21465;52.278;20.962;2023-09-07T13:40:26;0.93;;;0.85;;
35366;SDS011;21465;52.278;20.962;2023-09-07T13:42:55;1.23;;;1.13;;
35366;SDS011;21465;52.278;20.962;2023-09-07T13:45:21;1.05;;;0.98;;
35366;SDS011;21465;52.278;20.962;2023-09-07T13:47:48;0.80;;;0.80;;
35366;SDS011;21465;52.278;20.962;2023-09-07T13:50:13;1.67;;;0.98;;
35366;SDS011;21465;52.278;20.962;2023-09-07T13:52:39;1.85;;;1.13;;
35366;SDS011;21465;52.278;20.962;2023-09-07T13:55:05;2.25;;;1.00;;
35366;SDS011;21465;52.278;20.962;2023-09-07T14:00:12;1.20;;;1.10;;
35366;SDS011;21465;52.278;20.962;2023-09-07T14:02:49;1.63;;;1.00;;
35366;SDS011;21465;52.278;20.962;2023-09-07T14:05:15;1.45;;;1.20;;
35366;SDS011;21465;52.278;20.962;2023-09-07T14:07:41;2.35;;;1.30;;
35366;SDS011;21465;52.278;20.962;2023-09-07T14:10:06;1.58;;;0.98;;
35366;SDS011;21465;52.278;20.962;2023-09-07T14:12:32;1.23;;;1.13;;
35366;SDS011;21465;52.278;20.962;2023-09-07T14:14:58;1.17;;;1.00;;
35366;SDS011;21465;52.278;20.962;2023-09-07T14:17:27;1.20;;;1.08;;
35366;SDS011;21465;52.278;20.962;2023-09-07T14:19:53;1.37;;;1.13;;
35366;SDS011;21465;52.278;20.962;2023-09-07T14:22:26;1.00;;;0.90;;
35366;SDS011;21465;52.278;20.962;2023-09-07T14:25:08;0.90;;;0.90;;
35366;SDS011;21465;52.278;20.962;2023-09-07T14:27:39;1.17;;;1.08;;
35366;SDS011;21465;52.278;20.962;2023-09-07T14:30:19;1.63;;;1.00;;
35366;SDS011;21465;52.278;20.962;2023-09-07T14:32:45;1.10;;;1.00;;
35366;SDS011;21465;52.278;20.962;2023-09-07T14:35:17;1.33;;;1.23;;
35366;SDS011;21465;52.278;20.962;2023-09-07T14:37:43;3.60;;;1.20;;
35366;SDS011;21465;52.278;20.962;2023-09-07T14:40:11;1.20;;;1.00;;
35366;SDS011;21465;52.278;20.962;2023-09-07T14:42:46;2.63;;;1.50;;
35366;SDS011;21465;52.278;20.962;2023-09-07T14:45:14;1.33;;;0.90;;
35366;SDS011;21465;52.278;20.962;2023-09-07T14:47:40;0.80;;;0.80;;
35366;SDS011;21465;52.278;20.962;2023-09-07T14:50:06;1.10;;;1.00;;
35366;SDS011;21465;52.278;20.962;2023-09-07T14:52:33;0.88;;;0.85;;
35366;SDS011;21465;52.278;20.962;2023-09-07T14:55:03;1.27;;;1.17;;
35366;SDS011;21465;52.278;20.962;2023-09-07T14:57:29;3.80;;;1.00;;
35366;SDS011;21465;52.278;20.962;2023-09-07T14:59:54;1.73;;;1.20;;
35366;SDS011;21465;52.278;20.962;2023-09-07T15:02:20;1.83;;;1.02;;
35366;SDS011;21465;52.278;20.962;2023-09-07T15:04:46;2.28;;;0.80;;
35366;SDS011;21465;52.278;20.962;2023-09-07T15:07:12;1.45;;;1.00;;
35366;SDS011;21465;52.278;20.962;2023-09-07T15:09:38;2.35;;;1.23;;
35366;SDS011;21465;52.278;20.962;2023-09-07T15:12:07;1.30;;;1.10;;
35366;SDS011;21465;52.278;20.962;2023-09-07T15:14:32;1.98;;;1.00;;
35366;SDS011;21465;52.278;20.962;2023-09-07T15:16:58;1.70;;;0.90;;
35366;SDS011;21465;52.278;20.962;2023-09-07T15:19:27;1.10;;;1.00;;
35366;SDS011;21465;52.278;20.962;2023-09-07T15:25:25;1.23;;;1.20;;
35366;SDS011;21465;52.278;20.962;2023-09-07T15:28:02;1.52;;;1.00;;
35366;SDS011;21465;52.278;20.962;2023-09-07T15:30:27;1.25;;;0.90;;
35366;SDS011;21465;52.278;20.962;2023-09-07T15:32:53;3.03;;;1.17;;
35366;SDS011;21465;52.278;20.962;2023-09-07T15:35:19;1.27;;;1.00;;
35366;SDS011;21465;52.278;20.962;2023-09-07T15:37:45;1.10;;;1.00;;
35366;SDS011;21465;52.278;20.962;2023-09-07T15:40:16;2.80;;;1.20;;
35366;SDS011;21465;52.278;20.962;2023-09-07T15:42:44;1.75;;;1.30;;
35366;SDS011;21465;52.278;20.962;2023-09-07T15:45:09;1.83;;;1.08;;
35366;SDS011;21465;52.278;20.962;2023-09-07T15:47:35;1.95;;;1.20;;
35366;SDS011;21465;52.278;20.962;2023-09-07T15:50:01;2.35;;;1.20;;
35366;SDS011;21465;52.278;20.962;2023-09-07T15:52:31;2.13;;;1.17;;
35366;SDS011;21465;52.278;20.962;2023-09-07T15:54:58;2.15;;;1.33;;
35366;SDS011;21465;52.278;20.962;2023-09-07T15:57:24;1.85;;;1.38;;
35366;SDS011;21465;52.278;20.962;2023-09-07T15:59:50;3.22;;;1.13;;
35366;SDS011;21465;52.278;20.962;2023-09-07T16:02:16;1.75;;;1.13;;
35366;SDS011;21465;52.278;20.962;2023-09-07T16:04:42;2.45;;;1.27;;
35366;SDS011;21465;52.278;20.962;2023-09-07T16:07:08;1.75;;;1.20;;
35366;SDS011;21465;52.278;20.962;2023-09-07T16:09:33;2.38;;;1.10;;
35366;SDS011;21465;52.278;20.962;2023-09-07T16:11:59;2.15;;;1.10;;
35366;SDS011;21465;52.278;20.962;2023-09-07T16:14:25;3.58;;;1.40;;
35366;SDS011;21465;52.278;20.962;2023-09-07T16:16:51;2.63;;;1.35;;
35366;SDS011;21465;52.278;20.962;2023-09-07T16:19:16;3.03;;;1.52;;
35366;SDS011;21465;52.278;20.962;2023-09-07T16:21:42;3.38;;;1.40;;
35366;SDS011;21465;52.278;20.962;2023-09-07T16:24:08;2.83;;;1.40;;
35366;SDS011;21465;52.278;20.962;2023-09-07T16:26:36;6.13;;;1.48;;
35366;SDS011;21465;52.278;20.962;2023-09-07T16:29:02;3.25;;;1.50;;
35366;SDS011;21465;52.278;20.962;2023-09-07T16:31:27;2.55;;;1.17;;
35366;SDS011;21465;52.278;20.962;2023-09-07T16:33:53;7.03;;;1.63;;
35366;SDS011;21465;52.278;20.962;2023-09-07T16:36:20;2.35;;;1.23;;
35366;SDS011;21465;52.278;20.962;2023-09-07T16:38:47;2.45;;;1.50;;
35366;SDS011;21465;52.278;20.962;2023-09-07T16:41:13;3.47;;;1.75;;
35366;SDS011;21465;52.278;20.962;2023-09-07T16:43:38;2.90;;;1.25;;
35366;SDS011;21465;52.278;20.962;2023-09-07T16:46:05;2.35;;;1.30;;
35366;SDS011;21465;52.278;20.962;2023-09-07T16:48:31;3.63;;;1.38;;
35366;SDS011;21465;52.278;20.962;2023-09-07T16:50:57;1.70;;;1.60;;
35366;SDS011;21465;52.278;20.962;2023-09-07T16:53:23;1.77;;;1.33;;
35366;SDS011;21465;52.278;20.962;2023-09-07T16:55:49;2.38;;;1.45;;
35366;SDS011;21465;52.278;20.962;2023-09-07T16:58:15;3.72;;;1.60;;
35366;SDS011;21465;52.278;20.962;2023-09-07T17:00:41;2.67;;;1.30;;